Terminal Aerodrome Forecast
Issued by NWS Charleston, WV

Current Version | Previous Version | Text Only | Print | Product List | Glossary On
Versions: 1 2 3 4 5 6 7 8 9 10 11 12 13 14 15 16 17 18 19 20 21 22 23 24 25 26
033
FTUS41 KRLX 161121
TAFCRW
TAF
KCRW 161121Z 1612/1712 18009KT 6SM -RA BR FEW007 BKN014 OVC070
     FM161400 27008KT 1 1/2SM SHRA OVC013
     FM161500 28006KT 2SM SHRA OVC009
     FM161700 31011G19KT 2SM SHRA OVC008
     FM161900 32012G22KT 4SM -SHRA OVC011
     FM162100 32008KT P6SM OVC014
     FM170000 VRB04KT P6SM SCT035=

USA.gov is the U.S. government's official web portal to all federal, state and local government web resources and services.